sensor_id;sensor_type;location;lat;lon;timestamp;P1;durP1;ratioP1;P2;durP2;ratioP2
2620;SDS011;1320;48.128;11.592;2022-09-16T00:00:45;6.97;;;3.87;;
2620;SDS011;1320;48.128;11.592;2022-09-16T00:03:11;9.00;;;4.23;;
2620;SDS011;1320;48.128;11.592;2022-09-16T00:05:41;6.50;;;3.67;;
2620;SDS011;1320;48.128;11.592;2022-09-16T00:08:08;7.27;;;4.17;;
2620;SDS011;1320;48.128;11.592;2022-09-16T00:10:34;7.93;;;4.10;;
2620;SDS011;1320;48.128;11.592;2022-09-16T00:13:01;6.60;;;3.77;;
2620;SDS011;1320;48.128;11.592;2022-09-16T00:15:26;8.70;;;3.97;;
2620;SDS011;1320;48.128;11.592;2022-09-16T00:17:52;7.30;;;4.87;;
2620;SDS011;1320;48.128;11.592;2022-09-16T00:20:18;7.00;;;4.37;;
2620;SDS011;1320;48.128;11.592;2022-09-16T00:22:43;8.00;;;4.33;;
2620;SDS011;1320;48.128;11.592;2022-09-16T00:25:09;7.63;;;4.17;;
2620;SDS011;1320;48.128;11.592;2022-09-16T00:27:35;7.37;;;4.67;;
2620;SDS011;1320;48.128;11.592;2022-09-16T00:30:00;7.60;;;4.40;;
2620;SDS011;1320;48.128;11.592;2022-09-16T00:32:26;8.23;;;4.63;;
2620;SDS011;1320;48.128;11.592;2022-09-16T00:34:52;7.33;;;4.27;;
2620;SDS011;1320;48.128;11.592;2022-09-16T00:37:17;8.13;;;4.10;;
2620;SDS011;1320;48.128;11.592;2022-09-16T00:39:43;7.57;;;3.80;;
2620;SDS011;1320;48.128;11.592;2022-09-16T00:42:11;7.60;;;4.37;;
2620;SDS011;1320;48.128;11.592;2022-09-16T00:47:23;6.50;;;3.47;;
2620;SDS011;1320;48.128;11.592;2022-09-16T00:49:53;7.30;;;4.63;;
2620;SDS011;1320;48.128;11.592;2022-09-16T00:52:23;5.90;;;3.27;;
2620;SDS011;1320;48.128;11.592;2022-09-16T00:54:51;6.57;;;4.07;;
2620;SDS011;1320;48.128;11.592;2022-09-16T00:57:17;7.10;;;4.80;;
2620;SDS011;1320;48.128;11.592;2022-09-16T00:59:45;7.33;;;4.60;;
2620;SDS011;1320;48.128;11.592;2022-09-16T01:02:16;7.53;;;4.67;;
2620;SDS011;1320;48.128;11.592;2022-09-16T01:04:45;9.80;;;3.80;;
2620;SDS011;1320;48.128;11.592;2022-09-16T01:07:26;6.67;;;4.00;;
2620;SDS011;1320;48.128;11.592;2022-09-16T01:10:14;5.97;;;3.70;;
2620;SDS011;1320;48.128;11.592;2022-09-16T01:12:43;7.43;;;4.27;;
2620;SDS011;1320;48.128;11.592;2022-09-16T01:15:13;6.63;;;4.43;;
2620;SDS011;1320;48.128;11.592;2022-09-16T01:34:08;6.37;;;4.37;;
2620;SDS011;1320;48.128;11.592;2022-09-16T01:37:24;7.50;;;4.80;;
2620;SDS011;1320;48.128;11.592;2022-09-16T01:43:20;6.50;;;4.17;;
2620;SDS011;1320;48.128;11.592;2022-09-16T01:45:56;6.53;;;3.60;;
2620;SDS011;1320;48.128;11.592;2022-09-16T01:56:46;6.90;;;4.13;;
2620;SDS011;1320;48.128;11.592;2022-09-16T01:59:24;7.07;;;4.63;;
2620;SDS011;1320;48.128;11.592;2022-09-16T02:02:10;7.57;;;4.50;;
2620;SDS011;1320;48.128;11.592;2022-09-16T02:04:45;6.30;;;3.70;;
2620;SDS011;1320;48.128;11.592;2022-09-16T02:07:15;7.87;;;4.57;;
2620;SDS011;1320;48.128;11.592;2022-09-16T02:09:45;7.30;;;4.20;;
2620;SDS011;1320;48.128;11.592;2022-09-16T02:12:17;6.40;;;3.83;;
2620;SDS011;1320;48.128;11.592;2022-09-16T02:14:47;7.53;;;3.90;;
2620;SDS011;1320;48.128;11.592;2022-09-16T02:17:17;7.83;;;4.17;;
2620;SDS011;1320;48.128;11.592;2022-09-16T02:19:54;7.10;;;4.50;;
2620;SDS011;1320;48.128;11.592;2022-09-16T02:22:33;7.70;;;4.40;;
2620;SDS011;1320;48.128;11.592;2022-09-16T02:25:07;7.17;;;4.90;;
2620;SDS011;1320;48.128;11.592;2022-09-16T02:27:36;8.00;;;4.80;;
2620;SDS011;1320;48.128;11.592;2022-09-16T02:30:07;6.17;;;4.00;;
2620;SDS011;1320;48.128;11.592;2022-09-16T02:32:36;7.43;;;4.33;;
2620;SDS011;1320;48.128;11.592;2022-09-16T02:35:06;6.70;;;4.77;;
2620;SDS011;1320;48.128;11.592;2022-09-16T02:37:38;6.90;;;3.37;;
2620;SDS011;1320;48.128;11.592;2022-09-16T02:40:21;11.40;;;4.17;;
2620;SDS011;1320;48.128;11.592;2022-09-16T02:43:05;6.13;;;4.00;;
2620;SDS011;1320;48.128;11.592;2022-09-16T02:56:46;5.50;;;3.50;;
2620;SDS011;1320;48.128;11.592;2022-09-16T02:59:12;7.20;;;4.47;;
2620;SDS011;1320;48.128;11.592;2022-09-16T03:01:40;6.40;;;3.60;;
2620;SDS011;1320;48.128;11.592;2022-09-16T03:04:08;6.30;;;4.00;;
2620;SDS011;1320;48.128;11.592;2022-09-16T03:06:35;8.50;;;4.77;;
2620;SDS011;1320;48.128;11.592;2022-09-16T03:09:04;8.30;;;4.60;;
2620;SDS011;1320;48.128;11.592;2022-09-16T03:17:02;7.17;;;3.40;;
2620;SDS011;1320;48.128;11.592;2022-09-16T03:36:02;7.50;;;4.20;;
2620;SDS011;1320;48.128;11.592;2022-09-16T03:38:30;8.23;;;4.30;;
2620;SDS011;1320;48.128;11.592;2022-09-16T03:40:58;7.03;;;4.37;;
2620;SDS011;1320;48.128;11.592;2022-09-16T03:43:25;7.70;;;4.50;;
2620;SDS011;1320;48.128;11.592;2022-09-16T03:45:50;7.60;;;4.13;;
2620;SDS011;1320;48.128;11.592;2022-09-16T03:48:16;7.50;;;4.67;;
2620;SDS011;1320;48.128;11.592;2022-09-16T03:50:42;8.40;;;4.93;;
2620;SDS011;1320;48.128;11.592;2022-09-16T03:53:08;9.93;;;4.87;;
2620;SDS011;1320;48.128;11.592;2022-09-16T03:55:33;7.73;;;3.57;;
2620;SDS011;1320;48.128;11.592;2022-09-16T03:57:59;8.33;;;5.03;;
2620;SDS011;1320;48.128;11.592;2022-09-16T04:00:25;7.90;;;4.80;;
2620;SDS011;1320;48.128;11.592;2022-09-16T04:02:52;7.80;;;4.13;;
2620;SDS011;1320;48.128;11.592;2022-09-16T04:05:18;8.17;;;4.13;;
2620;SDS011;1320;48.128;11.592;2022-09-16T04:07:44;8.27;;;4.90;;
2620;SDS011;1320;48.128;11.592;2022-09-16T04:10:12;6.70;;;4.37;;
2620;SDS011;1320;48.128;11.592;2022-09-16T04:12:38;6.50;;;3.93;;
2620;SDS011;1320;48.128;11.592;2022-09-16T04:15:04;8.90;;;4.60;;
2620;SDS011;1320;48.128;11.592;2022-09-16T04:17:30;7.43;;;4.13;;
2620;SDS011;1320;48.128;11.592;2022-09-16T04:19:56;7.00;;;4.23;;
2620;SDS011;1320;48.128;11.592;2022-09-16T04:22:22;7.30;;;4.50;;
2620;SDS011;1320;48.128;11.592;2022-09-16T04:24:48;7.90;;;4.80;;
2620;SDS011;1320;48.128;11.592;2022-09-16T04:27:13;7.17;;;4.20;;
2620;SDS011;1320;48.128;11.592;2022-09-16T04:29:39;7.23;;;4.40;;
2620;SDS011;1320;48.128;11.592;2022-09-16T04:32:05;7.57;;;5.17;;
2620;SDS011;1320;48.128;11.592;2022-09-16T04:34:30;7.47;;;4.60;;
2620;SDS011;1320;48.128;11.592;2022-09-16T04:36:57;7.00;;;4.10;;
2620;SDS011;1320;48.128;11.592;2022-09-16T04:39:22;7.50;;;4.83;;
2620;SDS011;1320;48.128;11.592;2022-09-16T04:41:48;7.43;;;4.10;;
2620;SDS011;1320;48.128;11.592;2022-09-16T04:44:14;8.47;;;4.80;;
2620;SDS011;1320;48.128;11.592;2022-09-16T04:46:40;6.97;;;5.03;;
2620;SDS011;1320;48.128;11.592;2022-09-16T04:49:05;10.73;;;5.63;;
2620;SDS011;1320;48.128;11.592;2022-09-16T04:51:31;8.40;;;4.67;;
2620;SDS011;1320;48.128;11.592;2022-09-16T04:53:57;6.97;;;4.10;;
2620;SDS011;1320;48.128;11.592;2022-09-16T04:56:25;7.33;;;4.30;;
2620;SDS011;1320;48.128;11.592;2022-09-16T04:58:57;9.20;;;4.97;;
2620;SDS011;1320;48.128;11.592;2022-09-16T05:01:34;7.63;;;3.80;;
2620;SDS011;1320;48.128;11.592;2022-09-16T05:04:03;11.00;;;5.10;;
2620;SDS011;1320;48.128;11.592;2022-09-16T05:06:31;13.00;;;3.90;;
2620;SDS011;1320;48.128;11.592;2022-09-16T05:08:58;9.20;;;5.60;;
2620;SDS011;1320;48.128;11.592;2022-09-16T05:11:25;9.23;;;5.07;;
2620;SDS011;1320;48.128;11.592;2022-09-16T05:13:53;7.90;;;5.10;;
2620;SDS011;1320;48.128;11.592;2022-09-16T05:16:22;8.13;;;5.10;;
2620;SDS011;1320;48.128;11.592;2022-09-16T05:18:49;7.90;;;4.47;;
2620;SDS011;1320;48.128;11.592;2022-09-16T05:21:18;9.10;;;5.43;;
2620;SDS011;1320;48.128;11.592;2022-09-16T05:23:45;8.47;;;5.27;;
2620;SDS011;1320;48.128;11.592;2022-09-16T05:28:40;8.37;;;4.23;;
2620;SDS011;1320;48.128;11.592;2022-09-16T05:33:40;8.70;;;4.97;;
2620;SDS011;1320;48.128;11.592;2022-09-16T05:36:08;10.53;;;5.67;;
2620;SDS011;1320;48.128;11.592;2022-09-16T05:38:36;11.43;;;5.13;;
2620;SDS011;1320;48.128;11.592;2022-09-16T05:41:02;8.47;;;5.90;;
2620;SDS011;1320;48.128;11.592;2022-09-16T05:43:29;10.67;;;6.00;;
2620;SDS011;1320;48.128;11.592;2022-09-16T05:45:55;7.70;;;5.20;;
2620;SDS011;1320;48.128;11.592;2022-09-16T05:48:21;8.10;;;5.83;;
2620;SDS011;1320;48.128;11.592;2022-09-16T05:50:58;8.77;;;5.90;;
2620;SDS011;1320;48.128;11.592;2022-09-16T05:53:25;9.10;;;4.97;;
2620;SDS011;1320;48.128;11.592;2022-09-16T05:56:03;8.10;;;5.50;;
2620;SDS011;1320;48.128;11.592;2022-09-16T05:58:30;8.30;;;5.10;;
2620;SDS011;1320;48.128;11.592;2022-09-16T06:00:58;9.27;;;6.00;;
2620;SDS011;1320;48.128;11.592;2022-09-16T06:03:26;10.80;;;5.83;;
2620;SDS011;1320;48.128;11.592;2022-09-16T06:05:58;10.30;;;6.20;;
2620;SDS011;1320;48.128;11.592;2022-09-16T06:08:28;10.23;;;4.87;;
2620;SDS011;1320;48.128;11.592;2022-09-16T06:10:55;9.03;;;5.50;;
2620;SDS011;1320;48.128;11.592;2022-09-16T06:13:24;9.77;;;6.57;;
2620;SDS011;1320;48.128;11.592;2022-09-16T06:15:50;9.13;;;5.30;;
2620;SDS011;1320;48.128;11.592;2022-09-16T06:18:18;11.40;;;6.23;;
2620;SDS011;1320;48.128;11.592;2022-09-16T06:20:45;9.03;;;5.60;;
2620;SDS011;1320;48.128;11.592;2022-09-16T06:23:11;8.83;;;5.27;;
2620;SDS011;1320;48.128;11.592;2022-09-16T06:25:38;13.50;;;5.53;;
2620;SDS011;1320;48.128;11.592;2022-09-16T06:28:03;8.53;;;5.97;;
2620;SDS011;1320;48.128;11.592;2022-09-16T06:30:29;13.47;;;5.37;;
2620;SDS011;1320;48.128;11.592;2022-09-16T06:32:55;9.30;;;4.90;;
2620;SDS011;1320;48.128;11.592;2022-09-16T06:35:21;9.63;;;6.70;;
2620;SDS011;1320;48.128;11.592;2022-09-16T06:37:47;8.73;;;5.33;;
2620;SDS011;1320;48.128;11.592;2022-09-16T06:40:12;8.53;;;4.70;;
2620;SDS011;1320;48.128;11.592;2022-09-16T06:42:38;8.83;;;5.80;;
2620;SDS011;1320;48.128;11.592;2022-09-16T06:45:04;8.70;;;5.50;;
2620;SDS011;1320;48.128;11.592;2022-09-16T06:47:30;8.60;;;5.83;;
2620;SDS011;1320;48.128;11.592;2022-09-16T06:50:00;8.70;;;5.20;;
2620;SDS011;1320;48.128;11.592;2022-09-16T06:52:25;9.90;;;5.60;;
2620;SDS011;1320;48.128;11.592;2022-09-16T06:54:52;8.13;;;5.33;;
2620;SDS011;1320;48.128;11.592;2022-09-16T06:57:18;9.77;;;5.83;;
2620;SDS011;1320;48.128;11.592;2022-09-16T06:59:47;8.70;;;5.60;;
2620;SDS011;1320;48.128;11.592;2022-09-16T07:02:15;10.60;;;5.63;;
2620;SDS011;1320;48.128;11.592;2022-09-16T07:04:42;11.27;;;7.13;;
2620;SDS011;1320;48.128;11.592;2022-09-16T07:07:07;8.43;;;6.10;;
2620;SDS011;1320;48.128;11.592;2022-09-16T07:09:33;8.97;;;6.40;;
2620;SDS011;1320;48.128;11.592;2022-09-16T07:11:59;10.40;;;5.83;;
2620;SDS011;1320;48.128;11.592;2022-09-16T07:14:25;8.97;;;5.97;;
2620;SDS011;1320;48.128;11.592;2022-09-16T07:16:52;8.73;;;5.60;;
2620;SDS011;1320;48.128;11.592;2022-09-16T07:19:18;11.30;;;5.93;;
2620;SDS011;1320;48.128;11.592;2022-09-16T07:21:43;11.43;;;8.07;;
2620;SDS011;1320;48.128;11.592;2022-09-16T07:24:10;8.87;;;6.10;;
2620;SDS011;1320;48.128;11.592;2022-09-16T07:26:38;8.77;;;6.20;;
2620;SDS011;1320;48.128;11.592;2022-09-16T07:29:05;8.10;;;5.77;;
2620;SDS011;1320;48.128;11.592;2022-09-16T07:31:34;11.77;;;6.37;;
2620;SDS011;1320;48.128;11.592;2022-09-16T07:34:02;10.27;;;7.00;;
2620;SDS011;1320;48.128;11.592;2022-09-16T07:36:30;9.40;;;6.23;;
2620;SDS011;1320;48.128;11.592;2022-09-16T07:38:59;10.00;;;6.53;;
2620;SDS011;1320;48.128;11.592;2022-09-16T07:41:28;9.80;;;6.47;;
2620;SDS011;1320;48.128;11.592;2022-09-16T07:43:57;10.03;;;6.70;;
2620;SDS011;1320;48.128;11.592;2022-09-16T07:46:24;9.97;;;6.80;;
2620;SDS011;1320;48.128;11.592;2022-09-16T07:48:51;13.27;;;6.60;;
2620;SDS011;1320;48.128;11.592;2022-09-16T07:51:19;9.67;;;5.90;;
2620;SDS011;1320;48.128;11.592;2022-09-16T07:53:47;10.07;;;6.37;;
2620;SDS011;1320;48.128;11.592;2022-09-16T07:56:18;9.80;;;6.60;;
2620;SDS011;1320;48.128;11.592;2022-09-16T07:58:46;9.13;;;5.83;;
2620;SDS011;1320;48.128;11.592;2022-09-16T08:01:12;10.53;;;5.57;;
2620;SDS011;1320;48.128;11.592;2022-09-16T08:03:39;13.47;;;6.87;;
2620;SDS011;1320;48.128;11.592;2022-09-16T08:06:07;12.50;;;6.60;;
2620;SDS011;1320;48.128;11.592;2022-09-16T08:08:40;9.67;;;5.90;;
2620;SDS011;1320;48.128;11.592;2022-09-16T08:11:07;10.70;;;6.17;;
2620;SDS011;1320;48.128;11.592;2022-09-16T08:13:34;10.37;;;6.17;;
2620;SDS011;1320;48.128;11.592;2022-09-16T08:16:01;11.03;;;7.20;;
2620;SDS011;1320;48.128;11.592;2022-09-16T08:18:32;9.67;;;6.53;;
2620;SDS011;1320;48.128;11.592;2022-09-16T08:21:03;10.27;;;6.70;;
2620;SDS011;1320;48.128;11.592;2022-09-16T08:23:30;9.67;;;5.90;;
2620;SDS011;1320;48.128;11.592;2022-09-16T08:25:56;11.20;;;5.90;;
2620;SDS011;1320;48.128;11.592;2022-09-16T08:28:22;8.77;;;5.90;;
2620;SDS011;1320;48.128;11.592;2022-09-16T08:30:48;10.87;;;6.60;;
2620;SDS011;1320;48.128;11.592;2022-09-16T08:33:14;9.77;;;5.67;;
2620;SDS011;1320;48.128;11.592;2022-09-16T08:35:45;11.20;;;5.90;;
2620;SDS011;1320;48.128;11.592;2022-09-16T08:38:23;13.43;;;5.67;;
2620;SDS011;1320;48.128;11.592;2022-09-16T08:40:50;11.50;;;6.50;;
2620;SDS011;1320;48.128;11.592;2022-09-16T08:44:04;8.73;;;5.50;;
2620;SDS011;1320;48.128;11.592;2022-09-16T08:46:16;8.60;;;6.10;;
2620;SDS011;1320;48.128;11.592;2022-09-16T08:49:00;13.40;;;5.77;;
2620;SDS011;1320;48.128;11.592;2022-09-16T08:51:50;9.93;;;6.00;;
2620;SDS011;1320;48.128;11.592;2022-09-16T08:54:37;10.93;;;6.83;;
2620;SDS011;1320;48.128;11.592;2022-09-16T08:57:08;8.80;;;5.70;;
2620;SDS011;1320;48.128;11.592;2022-09-16T08:59:40;10.30;;;5.50;;
2620;SDS011;1320;48.128;11.592;2022-09-16T09:05:07;9.13;;;6.30;;
2620;SDS011;1320;48.128;11.592;2022-09-16T09:08:20;10.23;;;6.30;;
2620;SDS011;1320;48.128;11.592;2022-09-16T09:10:58;10.73;;;6.40;;
2620;SDS011;1320;48.128;11.592;2022-09-16T09:27:20;8.23;;;5.23;;
2620;SDS011;1320;48.128;11.592;2022-09-16T09:33:05;8.40;;;5.63;;
2620;SDS011;1320;48.128;11.592;2022-09-16T09:41:10;11.03;;;6.30;;
2620;SDS011;1320;48.128;11.592;2022-09-16T09:43:45;9.53;;;6.10;;
2620;SDS011;1320;48.128;11.592;2022-09-16T09:49:09;11.50;;;6.53;;
2620;SDS011;1320;48.128;11.592;2022-09-16T09:51:49;9.77;;;4.90;;
2620;SDS011;1320;48.128;11.592;2022-09-16T09:54:35;9.03;;;5.80;;
2620;SDS011;1320;48.128;11.592;2022-09-16T09:57:02;11.30;;;6.90;;
2620;SDS011;1320;48.128;11.592;2022-09-16T09:59:39;8.97;;;6.40;;
2620;SDS011;1320;48.128;11.592;2022-09-16T10:02:25;12.83;;;7.90;;
2620;SDS011;1320;48.128;11.592;2022-09-16T10:04:51;14.37;;;8.50;;
2620;SDS011;1320;48.128;11.592;2022-09-16T10:07:18;10.40;;;6.80;;
2620;SDS011;1320;48.128;11.592;2022-09-16T10:09:47;9.60;;;6.50;;
2620;SDS011;1320;48.128;11.592;2022-09-16T10:12:26;11.87;;;6.17;;
2620;SDS011;1320;48.128;11.592;2022-09-16T10:14:56;11.87;;;7.33;;
2620;SDS011;1320;48.128;11.592;2022-09-16T10:17:22;9.73;;;6.30;;
2620;SDS011;1320;48.128;11.592;2022-09-16T10:19:59;13.70;;;7.17;;
2620;SDS011;1320;48.128;11.592;2022-09-16T10:22:32;12.10;;;6.93;;
2620;SDS011;1320;48.128;11.592;2022-09-16T10:27:27;10.40;;;6.47;;
2620;SDS011;1320;48.128;11.592;2022-09-16T10:30:04;11.50;;;7.20;;
2620;SDS011;1320;48.128;11.592;2022-09-16T10:32:30;9.07;;;6.13;;
2620;SDS011;1320;48.128;11.592;2022-09-16T10:35:07;12.73;;;7.20;;
2620;SDS011;1320;48.128;11.592;2022-09-16T10:37:33;10.30;;;6.73;;
2620;SDS011;1320;48.128;11.592;2022-09-16T10:40:00;9.67;;;6.30;;
2620;SDS011;1320;48.128;11.592;2022-09-16T10:42:28;10.30;;;5.60;;
2620;SDS011;1320;48.128;11.592;2022-09-16T10:44:57;13.47;;;7.97;;
2620;SDS011;1320;48.128;11.592;2022-09-16T10:47:55;11.60;;;7.50;;
2620;SDS011;1320;48.128;11.592;2022-09-16T10:50:24;10.77;;;8.50;;
2620;SDS011;1320;48.128;11.592;2022-09-16T10:52:51;12.73;;;7.07;;
2620;SDS011;1320;48.128;11.592;2022-09-16T10:57:43;12.80;;;7.37;;
2620;SDS011;1320;48.128;11.592;2022-09-16T11:00:12;9.80;;;6.40;;
2620;SDS011;1320;48.128;11.592;2022-09-16T11:02:59;11.90;;;7.17;;
2620;SDS011;1320;48.128;11.592;2022-09-16T11:05:51;7.17;;;5.43;;
2620;SDS011;1320;48.128;11.592;2022-09-16T11:14:31;9.83;;;4.60;;
2620;SDS011;1320;48.128;11.592;2022-09-16T11:18:26;7.83;;;4.30;;
2620;SDS011;1320;48.128;11.592;2022-09-16T11:25:59;12.60;;;9.53;;
2620;SDS011;1320;48.128;11.592;2022-09-16T11:31:11;8.00;;;4.70;;
2620;SDS011;1320;48.128;11.592;2022-09-16T11:34:21;6.67;;;4.30;;
2620;SDS011;1320;48.128;11.592;2022-09-16T11:48:04;7.07;;;4.70;;
2620;SDS011;1320;48.128;11.592;2022-09-16T11:51:04;7.23;;;4.43;;
2620;SDS011;1320;48.128;11.592;2022-09-16T11:56:13;6.07;;;3.93;;
2620;SDS011;1320;48.128;11.592;2022-09-16T11:58:52;10.13;;;5.57;;
2620;SDS011;1320;48.128;11.592;2022-09-16T12:01:42;7.53;;;3.90;;
2620;SDS011;1320;48.128;11.592;2022-09-16T12:04:19;6.80;;;3.40;;
2620;SDS011;1320;48.128;11.592;2022-09-16T12:10:27;10.80;;;5.57;;
2620;SDS011;1320;48.128;11.592;2022-09-16T12:13:28;6.70;;;4.07;;
2620;SDS011;1320;48.128;11.592;2022-09-16T12:16:50;7.10;;;4.17;;
2620;SDS011;1320;48.128;11.592;2022-09-16T12:19:09;7.93;;;4.77;;
2620;SDS011;1320;48.128;11.592;2022-09-16T12:22:08;6.60;;;4.13;;
2620;SDS011;1320;48.128;11.592;2022-09-16T12:30:15;7.97;;;4.93;;
2620;SDS011;1320;48.128;11.592;2022-09-16T12:35:22;7.00;;;4.40;;
2620;SDS011;1320;48.128;11.592;2022-09-16T12:37:53;5.83;;;4.33;;
2620;SDS011;1320;48.128;11.592;2022-09-16T12:40:39;8.60;;;3.70;;
2620;SDS011;1320;48.128;11.592;2022-09-16T12:46:08;9.03;;;4.53;;
2620;SDS011;1320;48.128;11.592;2022-09-16T12:54:23;6.73;;;3.70;;
2620;SDS011;1320;48.128;11.592;2022-09-16T13:00:09;5.67;;;3.47;;
2620;SDS011;1320;48.128;11.592;2022-09-16T13:02:48;6.53;;;3.80;;
2620;SDS011;1320;48.128;11.592;2022-09-16T13:05:35;6.20;;;3.13;;
2620;SDS011;1320;48.128;11.592;2022-09-16T13:08:47;6.33;;;3.43;;
2620;SDS011;1320;48.128;11.592;2022-09-16T13:11:04;5.57;;;2.97;;
2620;SDS011;1320;48.128;11.592;2022-09-16T13:13:33;5.87;;;3.50;;
2620;SDS011;1320;48.128;11.592;2022-09-16T13:16:04;5.50;;;3.13;;
2620;SDS011;1320;48.128;11.592;2022-09-16T13:18:44;5.77;;;3.03;;
2620;SDS011;1320;48.128;11.592;2022-09-16T13:21:24;5.70;;;2.70;;
2620;SDS011;1320;48.128;11.592;2022-09-16T13:24:00;5.40;;;2.67;;
2620;SDS011;1320;48.128;11.592;2022-09-16T13:26:40;6.67;;;3.07;;
2620;SDS011;1320;48.128;11.592;2022-09-16T13:32:02;9.00;;;3.33;;
2620;SDS011;1320;48.128;11.592;2022-09-16T13:34:28;6.33;;;3.70;;
2620;SDS011;1320;48.128;11.592;2022-09-16T13:36:56;6.23;;;3.20;;
2620;SDS011;1320;48.128;11.592;2022-09-16T13:39:29;4.97;;;2.70;;
2620;SDS011;1320;48.128;11.592;2022-09-16T13:41:56;6.53;;;3.03;;
2620;SDS011;1320;48.128;11.592;2022-09-16T13:44:41;5.73;;;2.97;;
2620;SDS011;1320;48.128;11.592;2022-09-16T13:49:49;5.83;;;3.07;;
2620;SDS011;1320;48.128;11.592;2022-09-16T13:52:25;8.37;;;2.90;;
2620;SDS011;1320;48.128;11.592;2022-09-16T13:54:54;5.83;;;3.37;;
2620;SDS011;1320;48.128;11.592;2022-09-16T14:11:05;5.47;;;2.37;;
2620;SDS011;1320;48.128;11.592;2022-09-16T14:13:36;4.90;;;2.90;;
2620;SDS011;1320;48.128;11.592;2022-09-16T14:16:12;6.97;;;2.67;;
2620;SDS011;1320;48.128;11.592;2022-09-16T14:18:51;4.10;;;2.60;;
2620;SDS011;1320;48.128;11.592;2022-09-16T14:21:24;4.30;;;2.20;;
2620;SDS011;1320;48.128;11.592;2022-09-16T14:23:51;4.53;;;2.83;;
2620;SDS011;1320;48.128;11.592;2022-09-16T14:26:20;4.90;;;3.00;;
2620;SDS011;1320;48.128;11.592;2022-09-16T14:28:47;5.03;;;3.10;;
2620;SDS011;1320;48.128;11.592;2022-09-16T14:31:20;5.80;;;3.20;;
2620;SDS011;1320;48.128;11.592;2022-09-16T14:36:30;7.10;;;4.30;;
2620;SDS011;1320;48.128;11.592;2022-09-16T14:39:09;4.80;;;3.57;;
2620;SDS011;1320;48.128;11.592;2022-09-16T14:41:39;5.77;;;2.93;;
2620;SDS011;1320;48.128;11.592;2022-09-16T14:46:43;5.00;;;2.80;;
2620;SDS011;1320;48.128;11.592;2022-09-16T14:49:18;7.00;;;3.50;;
2620;SDS011;1320;48.128;11.592;2022-09-16T14:51:46;5.03;;;2.87;;
2620;SDS011;1320;48.128;11.592;2022-09-16T14:54:17;4.83;;;2.60;;
2620;SDS011;1320;48.128;11.592;2022-09-16T14:56:57;5.90;;;3.30;;
2620;SDS011;1320;48.128;11.592;2022-09-16T14:59:25;6.47;;;2.93;;
2620;SDS011;1320;48.128;11.592;2022-09-16T15:01:54;5.80;;;3.70;;
2620;SDS011;1320;48.128;11.592;2022-09-16T15:04:27;5.30;;;2.90;;
2620;SDS011;1320;48.128;11.592;2022-09-16T15:06:58;5.30;;;3.00;;
2620;SDS011;1320;48.128;11.592;2022-09-16T15:12:27;5.63;;;2.70;;
2620;SDS011;1320;48.128;11.592;2022-09-16T15:14:56;7.07;;;3.20;;
2620;SDS011;1320;48.128;11.592;2022-09-16T15:17:26;5.83;;;2.80;;
2620;SDS011;1320;48.128;11.592;2022-09-16T15:19:54;6.00;;;3.30;;
2620;SDS011;1320;48.128;11.592;2022-09-16T15:22:23;5.37;;;3.80;;
2620;SDS011;1320;48.128;11.592;2022-09-16T15:24:51;6.13;;;2.90;;
2620;SDS011;1320;48.128;11.592;2022-09-16T15:27:20;5.40;;;2.93;;
2620;SDS011;1320;48.128;11.592;2022-09-16T15:29:55;6.13;;;3.50;;
2620;SDS011;1320;48.128;11.592;2022-09-16T15:32:24;4.40;;;2.60;;
2620;SDS011;1320;48.128;11.592;2022-09-16T15:35:00;6.70;;;3.30;;
2620;SDS011;1320;48.128;11.592;2022-09-16T15:37:34;5.70;;;3.03;;
2620;SDS011;1320;48.128;11.592;2022-09-16T15:45:37;5.80;;;3.20;;
2620;SDS011;1320;48.128;11.592;2022-09-16T15:48:05;6.00;;;3.40;;
2620;SDS011;1320;48.128;11.592;2022-09-16T15:50:38;6.50;;;3.30;;
2620;SDS011;1320;48.128;11.592;2022-09-16T15:53:12;4.30;;;2.80;;
2620;SDS011;1320;48.128;11.592;2022-09-16T15:58:38;5.93;;;3.17;;
2620;SDS011;1320;48.128;11.592;2022-09-16T16:01:14;4.90;;;2.80;;
2620;SDS011;1320;48.128;11.592;2022-09-16T16:03:55;6.70;;;3.40;;
2620;SDS011;1320;48.128;11.592;2022-09-16T16:11:51;6.87;;;4.03;;
2620;SDS011;1320;48.128;11.592;2022-09-16T16:14:17;7.20;;;4.17;;
2620;SDS011;1320;48.128;11.592;2022-09-16T16:16:44;6.93;;;3.90;;
2620;SDS011;1320;48.128;11.592;2022-09-16T16:19:09;6.50;;;3.30;;
2620;SDS011;1320;48.128;11.592;2022-09-16T16:21:38;8.97;;;4.50;;
2620;SDS011;1320;48.128;11.592;2022-09-16T16:24:09;6.53;;;3.27;;
2620;SDS011;1320;48.128;11.592;2022-09-16T16:26:36;5.90;;;3.60;;
2620;SDS011;1320;48.128;11.592;2022-09-16T16:29:02;6.33;;;3.30;;
2620;SDS011;1320;48.128;11.592;2022-09-16T16:31:28;8.93;;;4.40;;
2620;SDS011;1320;48.128;11.592;2022-09-16T16:33:53;7.00;;;3.33;;
2620;SDS011;1320;48.128;11.592;2022-09-16T16:36:19;5.73;;;3.47;;
2620;SDS011;1320;48.128;11.592;2022-09-16T16:38:46;6.50;;;4.03;;
2620;SDS011;1320;48.128;11.592;2022-09-16T16:41:18;6.37;;;3.90;;
2620;SDS011;1320;48.128;11.592;2022-09-16T16:43:47;7.50;;;3.87;;
2620;SDS011;1320;48.128;11.592;2022-09-16T16:46:14;9.23;;;3.87;;
2620;SDS011;1320;48.128;11.592;2022-09-16T16:48:41;5.93;;;3.83;;
2620;SDS011;1320;48.128;11.592;2022-09-16T16:51:11;7.70;;;3.63;;
2620;SDS011;1320;48.128;11.592;2022-09-16T16:53:37;6.93;;;3.70;;
2620;SDS011;1320;48.128;11.592;2022-09-16T16:56:04;6.70;;;3.80;;
2620;SDS011;1320;48.128;11.592;2022-09-16T16:58:32;5.93;;;3.43;;
2620;SDS011;1320;48.128;11.592;2022-09-16T17:01:34;6.77;;;3.93;;
2620;SDS011;1320;48.128;11.592;2022-09-16T17:03:55;6.93;;;3.90;;
2620;SDS011;1320;48.128;11.592;2022-09-16T17:06:22;6.20;;;3.60;;
2620;SDS011;1320;48.128;11.592;2022-09-16T17:08:47;6.37;;;3.73;;
2620;SDS011;1320;48.128;11.592;2022-09-16T17:11:14;6.63;;;3.67;;
2620;SDS011;1320;48.128;11.592;2022-09-16T17:13:42;5.63;;;3.80;;
2620;SDS011;1320;48.128;11.592;2022-09-16T17:16:10;7.80;;;4.13;;
2620;SDS011;1320;48.128;11.592;2022-09-16T17:18:37;6.63;;;3.60;;
2620;SDS011;1320;48.128;11.592;2022-09-16T17:21:04;5.63;;;3.47;;
2620;SDS011;1320;48.128;11.592;2022-09-16T17:23:32;5.73;;;3.53;;
2620;SDS011;1320;48.128;11.592;2022-09-16T17:25:58;6.50;;;3.80;;
2620;SDS011;1320;48.128;11.592;2022-09-16T17:28:24;5.90;;;3.50;;
2620;SDS011;1320;48.128;11.592;2022-09-16T17:30:50;6.40;;;3.73;;
2620;SDS011;1320;48.128;11.592;2022-09-16T17:33:15;6.13;;;3.20;;
2620;SDS011;1320;48.128;11.592;2022-09-16T17:35:41;7.80;;;3.37;;
2620;SDS011;1320;48.128;11.592;2022-09-16T17:38:07;6.93;;;3.67;;
2620;SDS011;1320;48.128;11.592;2022-09-16T17:40:33;7.67;;;4.10;;
2620;SDS011;1320;48.128;11.592;2022-09-16T17:42:59;6.60;;;3.70;;
2620;SDS011;1320;48.128;11.592;2022-09-16T17:45:25;7.50;;;3.60;;
2620;SDS011;1320;48.128;11.592;2022-09-16T17:47:50;7.83;;;3.63;;
2620;SDS011;1320;48.128;11.592;2022-09-16T17:50:16;6.50;;;3.80;;
2620;SDS011;1320;48.128;11.592;2022-09-16T17:52:42;6.80;;;3.20;;
2620;SDS011;1320;48.128;11.592;2022-09-16T17:55:09;6.07;;;3.70;;
2620;SDS011;1320;48.128;11.592;2022-09-16T17:57:35;6.70;;;4.30;;
2620;SDS011;1320;48.128;11.592;2022-09-16T18:00:01;7.30;;;4.50;;
2620;SDS011;1320;48.128;11.592;2022-09-16T18:02:30;8.57;;;5.40;;
2620;SDS011;1320;48.128;11.592;2022-09-16T18:04:58;8.67;;;4.40;;
2620;SDS011;1320;48.128;11.592;2022-09-16T18:07:23;9.10;;;4.67;;
2620;SDS011;1320;48.128;11.592;2022-09-16T18:09:49;6.80;;;3.83;;
2620;SDS011;1320;48.128;11.592;2022-09-16T18:12:14;8.90;;;4.27;;
2620;SDS011;1320;48.128;11.592;2022-09-16T18:14:40;6.47;;;4.50;;
2620;SDS011;1320;48.128;11.592;2022-09-16T18:17:06;7.80;;;4.70;;
2620;SDS011;1320;48.128;11.592;2022-09-16T18:19:31;9.60;;;3.73;;
2620;SDS011;1320;48.128;11.592;2022-09-16T18:21:57;9.20;;;5.40;;
2620;SDS011;1320;48.128;11.592;2022-09-16T18:24:22;7.37;;;4.30;;
2620;SDS011;1320;48.128;11.592;2022-09-16T18:26:48;6.80;;;3.00;;
2620;SDS011;1320;48.128;11.592;2022-09-16T18:29:14;7.23;;;4.30;;
2620;SDS011;1320;48.128;11.592;2022-09-16T18:31:40;7.23;;;3.90;;
2620;SDS011;1320;48.128;11.592;2022-09-16T18:34:09;7.40;;;4.33;;